METAR Data
IDs: Format: Raw Decoded Include TAF

Data at: 0205 UTC 25 Mar 2019

KEBS 250155Z AUTO 02006KT 10SM BKN039 OVC055 07/07 A3011 RMK AO2
KEBS 250135Z AUTO 04005KT 10SM BKN041 OVC050 07/07 A3010 RMK AO2
KEBS 250115Z AUTO 04006KT 10SM SCT032 OVC050 07/07 A3010 RMK AO2
KEBS 250055Z AUTO 03007KT 10SM BKN031 OVC050 07/07 A3009 RMK AO2
KEBS 250035Z AUTO 03007KT 10SM OVC029 08/08 A3008 RMK AO2
KEBS 250015Z AUTO 04008KT 9SM BKN021 OVC026 08/08 A3008 RMK AO2
KEBS 242355Z AUTO 04008KT 9SM SCT012 OVC019 08/08 A3007 RMK AO2
KEBS 242335Z AUTO 03007KT 8SM BKN010 OVC013 08/08 A3006 RMK AO2
KEBS 242315Z AUTO 03008KT 6SM BR OVC007 08/08 A3006 RMK AO2
KEBS 242255Z AUTO 04008KT 6SM BR OVC007 08/08 A3005 RMK AO2
KEBS 242235Z AUTO 04010KT 7SM OVC008 08/08 A3005 RMK AO2
KEBS 242215Z AUTO 04008KT 6SM BR OVC008 08/08 A3004 RMK AO2
KEBS 242155Z AUTO 04009G14KT 6SM BR BKN008 OVC014 08/08 A3004 RMK AO2
KEBS 242135Z AUTO 05011KT 5SM BR BKN008 BKN014 08/08 A3003 RMK AO2
KEBS 242115Z AUTO 04008KT 3SM -RA OVC006 07/07 A3003 RMK AO2
KEBS 242055Z AUTO 05010KT 4SM BR OVC005 07/07 A3002 RMK AO2
KEBS 242035Z AUTO 06012KT 3SM BR OVC005 07/07 A3001 RMK AO2
KEBS 242015Z AUTO 04013KT 3SM BR OVC004 07/07 A3001 RMK AO2
KEBS 241955Z AUTO 04009G16KT 2 1/2SM BR OVC004 07/07 A3001 RMK AO2
KEBS 241935Z AUTO 02014KT 1 1/2SM BR OVC004 06/06 A3001 RMK AO2
KEBS 241915Z AUTO 02010KT 5SM BR OVC004 07/07 A3000 RMK AO2
KEBS 241855Z AUTO 02007KT 5SM BR OVC004 07/07 A3001 RMK AO2
KEBS 241835Z AUTO 04007KT 5SM BR OVC004 07/07 A3001 RMK AO2
KEBS 241815Z AUTO 06008KT 3SM BR OVC004 07/07 A3001 RMK AO2
KEBS 241755Z AUTO 07008KT 2 1/2SM BR OVC004 07/07 A3000 RMK AO2
KEBS 241735Z AUTO 06008KT 1 3/4SM BR OVC003 07/07 A3001 RMK AO2
KEBS 241715Z AUTO 05008KT 1 1/4SM BR OVC003 07/07 A3001 RMK AO2
KEBS 241655Z AUTO 08009KT 2SM BR OVC004 07/07 A3001 RMK AO2
KEBS 241635Z AUTO 07007KT 3SM BR OVC004 07/07 A3001 RMK AO2
KEBS 241615Z AUTO 07007KT 3SM BR OVC004 06/06 A3001 RMK AO2
KEBS 241555Z AUTO 06009KT 3SM BR OVC004 06/06 A3001 RMK AO2 P0001
KEBS 241535Z AUTO 06007KT 4SM BR OVC004 06/06 A3001 RMK AO2
KEBS 241515Z AUTO 07007KT 3SM BR OVC004 06/06 A3000 RMK AO2
KEBS 241455Z AUTO 10008KT 2 1/2SM -RA OVC004 05/05 A3000 RMK AO2 P0002
KEBS 241435Z AUTO 11008KT 3SM -RA OVC004 05/05 A3000 RMK AO2
KEBS 241415Z AUTO 08010KT 2 1/2SM BR OVC004 05/05 A2999 RMK AO2
KEBS 241355Z AUTO 08010KT 2SM BR OVC003 05/05 A2999 RMK AO2 P0001
KEBS 241335Z AUTO 09010KT 1SM BR OVC003 05/05 A3000 RMK AO2
KEBS 241315Z AUTO 08010KT 3/4SM -UP OVC003 05/05 A2999 RMK AO2
KEBS 241255Z AUTO 07009KT 3/4SM -UP OVC003 05/05 A3000 RMK AO2 P0001
KEBS 241235Z AUTO 06008KT 1/2SM -UP OVC003 05/05 A3000 RMK AO2
KEBS 241215Z AUTO 06007KT 1 1/4SM -UP OVC003 05/05 A2999 RMK AO2
KEBS 241155Z AUTO 07009KT 1 3/4SM BR OVC004 05/05 A2999 RMK AO2 P0001
KEBS 241135Z AUTO 08007KT 3SM BR BKN004 OVC014 05/05 A2999 RMK AO2
KEBS 241115Z AUTO 09009KT 3SM BR BKN005 OVC015 05/05 A2998 RMK AO2
KEBS 241055Z AUTO 09010KT 2SM -UP SCT005 OVC013 05/05 A2998 RMK AO2
KEBS 241035Z AUTO 09008KT 1 1/2SM BR BKN004 OVC012 05/05 A2998 RMK AO2
KEBS 241015Z AUTO 08009KT 1 1/2SM BR SCT003 OVC013 05/05 A2999 RMK AO2
KEBS 240955Z AUTO 09009KT 1 3/4SM -UP OVC014 05/05 A2999 RMK AO2 P0001
KEBS 240935Z AUTO 09009KT 4SM BR OVC013 05/05 A2999 RMK AO2
KEBS 240915Z AUTO 08008KT 4SM BR OVC015 05/05 A2999 RMK AO2
KEBS 240855Z AUTO 08008KT 3SM BR OVC015 05/05 A3000 RMK AO2 P0001
KEBS 240835Z AUTO 08007KT 3SM BR OVC015 05/05 A3000 RMK AO2
KEBS 240815Z AUTO 08006KT 2 1/2SM BR OVC016 05/05 A3001 RMK AO2
KEBS 240755Z AUTO 09006KT 2SM -UP OVC017 05/05 A3002 RMK AO2
KEBS 240735Z AUTO 10007KT 6SM BR OVC017 06/06 A3003 RMK AO2
KEBS 240715Z AUTO 09007KT 10SM OVC020 06/06 A3003 RMK AO2
KEBS 240655Z AUTO 10007KT 6SM BR BKN024 OVC028 06/06 A3002 RMK AO2
KEBS 240635Z AUTO 11007KT 10SM OVC030 06/05 A3003 RMK AO2
KEBS 240615Z AUTO 11007KT 10SM OVC033 06/05 A3003 RMK AO2
KEBS 240555Z AUTO 12007KT 10SM OVC037 06/05 A3003 RMK AO2
KEBS 240535Z AUTO 11006KT 10SM OVC041 06/04 A3003 RMK AO2
KEBS 240515Z AUTO 10007KT 10SM SCT041 OVC048 07/04 A3003 RMK AO2
KEBS 240455Z AUTO 12007KT 10SM OVC049 06/04 A3004 RMK AO2
KEBS 240435Z AUTO 12006KT 10SM OVC049 06/04 A3004 RMK AO2
KEBS 240415Z AUTO 12005KT 10SM BKN050 OVC070 06/05 A3005 RMK AO2
KEBS 240355Z AUTO 11008KT 10SM SCT026 OVC055 06/05 A3004 RMK AO2
KEBS 240335Z AUTO 12008KT 10SM SCT025 BKN065 OVC090 07/05 A3006 RMK AO2
KEBS 240315Z AUTO 11007KT 10SM FEW031 OVC065 07/05 A3006 RMK AO2
KEBS 240255Z AUTO 11006KT 10SM FEW031 OVC070 06/05 A3006 RMK AO2
KEBS 240235Z AUTO 12008KT 10SM OVC075 07/05 A3006 RMK AO2
KEBS 240215Z AUTO 11007KT 10SM BKN080 OVC090 07/05 A3006 RMK AO2
KEBS 240155Z AUTO 11008KT 10SM OVC090 07/05 A3006 RMK AO2
KEBS 240135Z AUTO 10009KT 10SM FEW070 OVC090 07/05 A3006 RMK AO2
KEBS 240115Z AUTO 11009KT 10SM BKN070 OVC090 07/06 A3007 RMK AO2
KEBS 240055Z AUTO 11010KT 10SM OVC070 08/05 A3007 RMK AO2
KEBS 240035Z AUTO 11011KT 10SM BKN075 OVC090 08/05 A3007 RMK AO2
KEBS 240015Z AUTO 11009KT 10SM SCT070 OVC095 08/06 A3007 RMK AO2
KEBS 232355Z AUTO 10009KT 10SM FEW060 SCT075 BKN100 08/06 A3007 RMK AO2
KEBS 232335Z AUTO 10008KT 10SM BKN060 BKN085 08/06 A3007 RMK AO2
KEBS 232315Z AUTO 11008KT 10SM SCT060 BKN075 BKN090 08/06 A3008 RMK AO2
KEBS 232255Z AUTO 11009KT 10SM BKN055 BKN065 09/06 A3007 RMK AO2
KEBS 232235Z AUTO 10008KT 10SM FEW060 SCT080 09/06 A3008 RMK AO2
KEBS 232215Z AUTO 11010KT 10SM FEW055 FEW080 09/05 A3008 RMK AO2
KEBS 232155Z AUTO 11011KT 10SM FEW055 FEW075 10/04 A3009 RMK AO2
KEBS 232135Z AUTO 12010KT 10SM FEW100 10/03 A3010 RMK AO2
KEBS 232115Z AUTO 14011KT 10SM SCT100 10/03 A3011 RMK AO2
KEBS 232055Z AUTO 13012KT 10SM CLR 10/02 A3010 RMK AO2
KEBS 232035Z AUTO 13010KT FEW110 11/03 A3011 RMK AO2
KEBS 232015Z AUTO 14010KT 10SM FEW110 11/03 A3011 RMK AO2
KEBS 231955Z AUTO 13012KT 10SM FEW110 11/03 A3011 RMK AO2
KEBS 231935Z AUTO 12011KT 10SM CLR 11/02 A3011 RMK AO2
KEBS 231915Z AUTO 15011KT 10SM CLR 12/02 A3013 RMK AO2
KEBS 231855Z AUTO 14009KT 10SM CLR 12/01 A3014 RMK AO2
KEBS 231835Z AUTO 15008KT 10SM CLR 12/02 A3015 RMK AO2
KEBS 231815Z AUTO 14008G14KT 10SM CLR 12/02 A3016 RMK AO2
KEBS 231755Z AUTO 16010G15KT 10SM CLR 11/03 A3016 RMK AO2
KEBS 231735Z AUTO 15010KT 10SM CLR 11/02 A3016 RMK AO2
KEBS 231715Z AUTO 16010KT 10SM CLR 10/03 A3016 RMK AO2
KEBS 231655Z AUTO 17011KT 10SM CLR 10/02 A3016 RMK AO2
KEBS 231635Z AUTO 15011KT 10SM CLR 09/02 A3017 RMK AO2
KEBS 231615Z AUTO 17012KT 10SM CLR 09/02 A3018 RMK AO2
KEBS 231555Z AUTO 15010KT 10SM CLR 08/02 A3018 RMK AO2
KEBS 231535Z AUTO 13008KT 10SM CLR 08/02 A3018 RMK AO2
KEBS 231515Z AUTO 14010KT 10SM CLR 06/02 A3019 RMK AO2
KEBS 231455Z AUTO 14010KT 10SM CLR 05/02 A3019 RMK AO2
KEBS 231435Z AUTO 13012KT 10SM CLR 05/02 A3019 RMK AO2
KEBS 231415Z AUTO 13007KT 10SM CLR 04/02 A3020 RMK AO2